createdAt,value
2023-03-18T00:03:59.281Z,22.9
2023-03-18T00:20:05.202Z,22.9
2023-03-18T00:25:42.312Z,22.9
2023-03-18T00:31:19.049Z,22.9
2023-03-18T00:37:12.200Z,22.9
2023-03-18T00:43:05.760Z,22.9
2023-03-18T00:59:59.032Z,22.8
2023-03-18T01:05:36.994Z,22.8
2023-03-18T01:11:14.714Z,22.8
2023-03-18T01:17:11.006Z,22.8
2023-03-18T01:28:25.027Z,22.8
2023-03-18T01:34:02.175Z,22.8
2023-03-18T01:39:54.443Z,22.8
2023-03-18T01:45:31.576Z,22.7
2023-03-18T01:51:08.974Z,22.7
2023-03-18T01:56:46.637Z,22.7
2023-03-18T02:02:39.197Z,22.7
2023-03-18T02:08:32.995Z,22.7
2023-03-18T02:14:09.870Z,22.6
2023-03-18T02:20:02.627Z,22.6
2023-03-18T02:25:25.084Z,22.6
2023-03-18T02:31:02.658Z,22.6
2023-03-18T02:36:55.829Z,22.6
2023-03-18T02:42:49.113Z,22.6
2023-03-18T02:48:40.942Z,22.6
2023-03-18T02:54:33.187Z,22.6
2023-03-18T03:05:33.714Z,22.6
2023-03-18T03:16:48.098Z,22.6
2023-03-18T03:22:26.065Z,22.5
2023-03-18T03:28:17.946Z,22.5
2023-03-18T03:34:10.761Z,22.5
2023-03-18T03:39:32.553Z,22.5
2023-03-18T03:45:25.840Z,22.5
2023-03-18T03:51:19.235Z,22.5
2023-03-18T03:56:56.351Z,22.4
2023-03-18T04:02:17.950Z,22.4
2023-03-18T04:07:39.941Z,22.4
2023-03-18T04:13:32.586Z,22.4
2023-03-18T04:19:26.561Z,22.4
2023-03-18T04:30:25.012Z,22.4
2023-03-18T04:36:18.476Z,22.4
2023-03-18T04:42:11.359Z,22.4
2023-03-18T04:48:04.809Z,22.4
2023-03-18T04:53:41.702Z,22.4
2023-03-18T04:59:35.399Z,22.4
2023-03-18T05:05:15.999Z,22.3
2023-03-18T05:11:08.601Z,22.3
2023-03-18T05:17:00.890Z,22.3
2023-03-18T05:22:22.303Z,22.3
2023-03-18T05:28:14.895Z,22.3
2023-03-18T05:34:09.491Z,22.3
2023-03-18T05:40:02.328Z,22.3
2023-03-18T05:46:03.150Z,22.3
2023-03-18T05:51:55.907Z,22.3
2023-03-18T05:57:49.903Z,22.2
2023-03-18T06:03:12.478Z,22.2
2023-03-18T06:08:52.516Z,22.2
2023-03-18T06:14:45.281Z,22.2
2023-03-18T06:20:39.039Z,22.1
2023-03-18T06:26:16.631Z,22.1
2023-03-18T06:32:10.431Z,22.1
2023-03-18T06:38:03.271Z,22.1
2023-03-18T06:43:56.225Z,22.1
2023-03-18T06:49:51.608Z,22.1
2023-03-18T06:55:43.237Z,22.1
2023-03-18T07:07:14.247Z,22.1
2023-03-18T07:13:05.469Z,22.1
2023-03-18T07:19:01.452Z,22.1
2023-03-18T07:24:40.068Z,22.1
2023-03-18T07:30:18.431Z,22
2023-03-18T07:36:15.205Z,22
2023-03-18T07:42:10.812Z,22
2023-03-18T07:48:03.804Z,22
2023-03-18T07:53:55.372Z,22
2023-03-18T07:59:51.423Z,21.9
2023-03-18T08:05:47.725Z,21.9
2023-03-18T08:11:25.676Z,21.9
2023-03-18T08:17:38.528Z,21.9
2023-03-18T08:23:31.315Z,21.9
2023-03-18T08:29:24.813Z,21.9
2023-03-18T08:35:20.286Z,21.9
2023-03-18T08:40:58.014Z,21.9
2023-03-18T08:46:50.898Z,21.9
2023-03-18T08:52:28.397Z,21.9
2023-03-18T08:58:20.799Z,21.8
2023-03-18T09:03:43.114Z,21.9
2023-03-18T09:09:21.526Z,21.8
2023-03-18T09:15:19.691Z,21.8
2023-03-18T09:21:39.157Z,21.8
2023-03-18T09:27:32.020Z,21.8
2023-03-18T09:33:24.471Z,21.8
2023-03-18T09:39:18.005Z,21.8
2023-03-18T09:45:10.916Z,21.8
2023-03-18T09:51:04.408Z,21.8
2023-03-18T09:56:57.201Z,21.8
2023-03-18T10:02:34.112Z,21.7
2023-03-18T10:08:27.003Z,21.7
2023-03-18T10:14:03.908Z,21.7
2023-03-18T10:19:41.588Z,21.7
2023-03-18T10:25:46.440Z,22.4
2023-03-18T10:31:38.946Z,23.4
2023-03-18T10:37:34.990Z,24.6
2023-03-18T10:43:28.431Z,25.9
2023-03-18T10:49:21.455Z,26.6
2023-03-18T10:55:13.720Z,26.6
2023-03-18T11:01:06.389Z,26.6
2023-03-18T11:06:59.375Z,26.5
2023-03-18T11:12:52.542Z,26.5
2023-03-18T11:18:45.954Z,26.5
2023-03-18T11:24:38.930Z,26.4
2023-03-18T11:30:40.911Z,26.4
2023-03-18T11:36:34.776Z,26.4
2023-03-18T11:42:33.111Z,26.4
2023-03-18T11:48:26.528Z,26.4
2023-03-18T11:54:03.895Z,26.4
2023-03-18T11:59:26.348Z,26.4
2023-03-18T12:04:48.477Z,26.3
2023-03-18T12:10:12.769Z,26.4
2023-03-18T12:16:07.143Z,26.3
2023-03-18T12:22:01.195Z,26.3
2023-03-18T12:27:23.133Z,26.3
2023-03-18T12:33:00.925Z,26.3
2023-03-18T12:38:40.627Z,26.3
2023-03-18T12:44:33.977Z,26.3
2023-03-18T12:50:39.264Z,26.3
2023-03-18T12:56:16.117Z,26.3
2023-03-18T13:02:12.757Z,26.3
2023-03-18T13:13:30.454Z,26.3
2023-03-18T13:19:11.728Z,26.2
2023-03-18T13:25:05.149Z,26.2
2023-03-18T13:30:58.819Z,26.2
2023-03-18T13:36:53.709Z,26.2
2023-03-18T13:42:47.012Z,26.2
2023-03-18T13:48:40.962Z,26.2
2023-03-18T13:54:19.109Z,26.1
2023-03-18T14:00:11.381Z,26.1
2023-03-18T14:06:05.865Z,26.1
2023-03-18T14:12:14.935Z,26.1
2023-03-18T14:18:08.884Z,26.1
2023-03-18T14:23:33.695Z,26.1
2023-03-18T14:29:12.847Z,26.1
2023-03-18T14:34:35.228Z,26.1
2023-03-18T14:40:11.944Z,26.1
2023-03-18T14:46:08.873Z,26
2023-03-18T14:51:53.943Z,26
2023-03-18T14:57:30.589Z,26
2023-03-18T15:03:23.372Z,25.9
2023-03-18T15:09:29.984Z,25.9
2023-03-18T15:15:06.206Z,25.9
2023-03-18T15:20:43.545Z,25.9
2023-03-18T15:26:37.388Z,25.9
2023-03-18T15:32:14.235Z,25.9
2023-03-18T15:38:07.986Z,25.9
2023-03-18T15:44:00.462Z,25.9
2023-03-18T15:49:38.493Z,25.9
2023-03-18T15:55:15.131Z,25.9
2023-03-18T16:01:09.133Z,25.9
2023-03-18T16:07:01.568Z,25.8
2023-03-18T16:12:54.324Z,25.8
2023-03-18T16:18:32.300Z,25.8
2023-03-18T16:24:25.066Z,25.8
2023-03-18T16:30:17.790Z,25.8
2023-03-18T16:36:11.375Z,25.8
2023-03-18T16:41:48.675Z,25.7
2023-03-18T16:47:26.908Z,25.7
2023-03-18T16:53:03.234Z,25.7
2023-03-18T16:58:40.531Z,25.7
2023-03-18T17:04:33.699Z,25.7
2023-03-18T17:10:11.464Z,25.6
2023-03-18T17:16:07.046Z,25.6
2023-03-18T17:21:43.313Z,25.6
2023-03-18T17:27:36.186Z,25.6
2023-03-18T17:33:16.968Z,25.6
2023-03-18T17:39:09.555Z,25.6
2023-03-18T17:44:47.046Z,25.6
2023-03-18T17:50:24.512Z,25.6
2023-03-18T17:56:01.353Z,25.6
2023-03-18T18:01:54.469Z,25.6
2023-03-18T18:07:32.280Z,25.5
2023-03-18T18:18:49.462Z,25.5
2023-03-18T18:24:43.525Z,25.5
2023-03-18T18:30:24.129Z,25.4
2023-03-18T18:41:24.239Z,25.4
2023-03-18T18:47:17.064Z,25.4
2023-03-18T18:52:39.714Z,25.4
2023-03-18T18:58:33.167Z,25.4
2023-03-18T19:04:26.883Z,25.4
2023-03-18T19:10:04.915Z,25.3
2023-03-18T19:15:58.925Z,25.3
2023-03-18T19:21:36.326Z,25.3
2023-03-18T19:27:29.687Z,25.3
2023-03-18T19:33:13.864Z,25.3
2023-03-18T19:44:45.202Z,25.3
2023-03-18T19:50:24.648Z,25.3
2023-03-18T19:56:18.565Z,25.2
2023-03-18T20:02:14.822Z,25.2
2023-03-18T20:08:08.796Z,25.2
2023-03-18T20:14:01.012Z,25.2
2023-03-18T20:19:54.477Z,25.1
2023-03-18T20:25:46.449Z,25.1
2023-03-18T20:31:24.607Z,25.1
2023-03-18T20:36:32.075Z,25.1
2023-03-18T20:41:38.181Z,25.1
2023-03-18T20:47:16.264Z,25.1
2023-03-18T20:52:53.639Z,25.1
2023-03-18T20:58:46.102Z,25.1
2023-03-18T21:04:24.434Z,25
2023-03-18T21:10:17.490Z,25
2023-03-18T21:15:55.207Z,25
2023-03-18T21:22:01.252Z,25
2023-03-18T21:28:09.156Z,24.9
2023-03-18T21:34:05.800Z,25
2023-03-18T21:39:43.041Z,24.9
2023-03-18T21:45:20.929Z,24.9
2023-03-18T21:51:24.865Z,24.9
2023-03-18T21:57:21.017Z,24.9
2023-03-18T22:03:13.803Z,24.9
2023-03-18T22:08:51.058Z,24.9
2023-03-18T22:14:11.878Z,24.9
2023-03-18T22:20:05.918Z,24.9
2023-03-18T22:36:44.288Z,24.8
2023-03-18T22:42:36.662Z,24.8
2023-03-18T22:48:31.573Z,24.8
2023-03-18T22:59:47.792Z,24.8
2023-03-18T23:11:17.795Z,24.8
2023-03-18T23:17:11.540Z,24.7
2023-03-18T23:23:04.839Z,24.7
2023-03-18T23:29:01.620Z,24.7
2023-03-18T23:40:01.721Z,24.6
2023-03-18T23:45:56.428Z,24.6
2023-03-18T23:51:50.032Z,24.6
2023-03-18T23:58:05.268Z,24.6
